createdAt,value
2022-10-17T00:01:14.449Z,14.11
2022-10-17T00:03:42.664Z,14.14
2022-10-17T00:06:13.157Z,14.19
2022-10-17T00:08:43.037Z,14.19
2022-10-17T00:11:18.053Z,14.21
2022-10-17T00:13:48.256Z,14.25
2022-10-17T00:16:28.158Z,14.17
2022-10-17T00:18:57.361Z,14.11
2022-10-17T00:21:26.823Z,14.03
2022-10-17T00:24:00.095Z,13.99
2022-10-17T00:26:31.381Z,13.94
2022-10-17T00:28:59.687Z,13.92
2022-10-17T00:31:28.054Z,13.86
2022-10-17T00:33:56.923Z,13.83
2022-10-17T00:36:26.570Z,13.94
2022-10-17T00:38:58.928Z,13.93
2022-10-17T00:41:32.938Z,13.87
2022-10-17T00:44:24.041Z,13.78
2022-10-17T00:46:52.274Z,13.68
2022-10-17T00:49:26.410Z,13.64
2022-10-17T00:52:04.770Z,13.61
2022-10-17T00:54:39.730Z,13.59
2022-10-17T00:57:08.107Z,13.65
2022-10-17T00:59:39.700Z,13.71
2022-10-17T01:02:14.678Z,13.73
2022-10-17T01:04:47.235Z,13.74
2022-10-17T01:07:15.706Z,13.80
2022-10-17T01:09:46.400Z,13.83
2022-10-17T01:12:30.538Z,13.78
2022-10-17T01:15:19.362Z,13.64
2022-10-17T01:18:14.200Z,13.57
2022-10-17T01:21:03.017Z,13.62
2022-10-17T01:23:40.446Z,13.56
2022-10-17T01:26:23.058Z,13.48
2022-10-17T01:29:25.923Z,13.45
2022-10-17T01:32:08.826Z,13.49
2022-10-17T01:35:01.195Z,13.57
2022-10-17T01:37:37.919Z,13.68
2022-10-17T01:40:33.554Z,13.71
2022-10-17T01:43:15.146Z,13.67
2022-10-17T01:45:58.991Z,13.63
2022-10-17T01:48:37.033Z,13.61
2022-10-17T01:51:21.309Z,13.59
2022-10-17T01:53:56.855Z,13.55
2022-10-17T01:56:30.272Z,13.53
2022-10-17T01:59:25.719Z,13.57
2022-10-17T02:01:57.907Z,13.62
2022-10-17T02:04:27.808Z,13.70
2022-10-17T02:06:56.146Z,13.67
2022-10-17T02:09:27.022Z,13.66
2022-10-17T02:12:07.292Z,13.65
2022-10-17T02:14:54.529Z,13.63
2022-10-17T02:17:52.783Z,13.57
2022-10-17T02:20:31.898Z,13.66
2022-10-17T02:23:04.232Z,13.64
2022-10-17T02:26:06.944Z,13.56
2022-10-17T02:28:53.644Z,13.43
2022-10-17T02:31:54.574Z,13.39
2022-10-17T02:34:32.198Z,13.36
2022-10-17T02:37:05.119Z,13.38
2022-10-17T02:39:35.926Z,13.45
2022-10-17T02:42:09.059Z,13.53
2022-10-17T02:44:44.868Z,13.49
2022-10-17T02:47:39.311Z,13.38
2022-10-17T02:50:08.088Z,13.24
2022-10-17T02:53:04.743Z,13.15
2022-10-17T02:55:39.201Z,13.11
2022-10-17T02:58:24.158Z,13.12
2022-10-17T03:00:53.439Z,13.16
2022-10-17T03:03:27.641Z,13.16
2022-10-17T03:05:56.278Z,13.18
2022-10-17T03:08:29.076Z,13.22
2022-10-17T03:10:57.935Z,13.35
2022-10-17T03:13:29.323Z,13.28
2022-10-17T03:15:58.160Z,13.27
2022-10-17T03:18:26.461Z,13.23
2022-10-17T03:20:59.378Z,13.22
2022-10-17T03:23:27.622Z,13.24
2022-10-17T03:25:56.391Z,13.21
2022-10-17T03:28:24.707Z,13.21
2022-10-17T03:30:53.133Z,13.21
2022-10-17T03:33:21.330Z,13.17
2022-10-17T03:38:23.678Z,13.09
2022-10-17T03:40:58.191Z,13.11
2022-10-17T03:43:26.449Z,12.97
2022-10-17T03:45:54.660Z,12.91
2022-10-17T03:48:22.862Z,12.89
2022-10-17T03:50:51.636Z,12.88
2022-10-17T03:53:20.168Z,12.87
2022-10-17T03:55:48.768Z,12.88
2022-10-17T03:58:20.250Z,12.92
2022-10-17T04:00:49.191Z,13.02
2022-10-17T04:03:17.511Z,13.06
2022-10-17T04:05:46.132Z,13.07
2022-10-17T04:08:14.325Z,13.08
2022-10-17T04:11:07.183Z,13.11
2022-10-17T04:13:36.103Z,13.07
2022-10-17T04:16:13.341Z,13.05
2022-10-17T04:18:56.740Z,13.01
2022-10-17T04:21:28.686Z,12.90
2022-10-17T04:24:01.205Z,12.92
2022-10-17T04:27:01.623Z,12.88
2022-10-17T04:29:33.396Z,12.95
2022-10-17T04:32:28.003Z,12.94
2022-10-17T04:35:16.731Z,12.94
2022-10-17T04:37:49.383Z,12.99
2022-10-17T04:40:19.829Z,13.07
2022-10-17T04:42:48.491Z,13.13
2022-10-17T04:45:21.189Z,12.99
2022-10-17T04:47:52.953Z,12.90
2022-10-17T04:50:21.204Z,12.94
2022-10-17T04:53:09.376Z,12.96
2022-10-17T04:55:39.005Z,12.97
2022-10-17T04:58:10.184Z,12.98
2022-10-17T05:00:39.311Z,12.88
2022-10-17T05:03:20.539Z,12.88
2022-10-17T05:05:48.743Z,12.92
2022-10-17T05:08:17.931Z,12.94
2022-10-17T05:10:46.444Z,12.95
2022-10-17T05:13:15.337Z,12.92
2022-10-17T05:15:43.679Z,12.94
2022-10-17T05:18:13.467Z,12.81
2022-10-17T05:20:45.089Z,12.80
2022-10-17T05:23:16.334Z,12.79
2022-10-17T05:25:45.714Z,12.82
2022-10-17T05:28:13.865Z,12.92
2022-10-17T05:30:45.248Z,12.99
2022-10-17T05:33:13.573Z,12.97
2022-10-17T05:35:42.102Z,12.92
2022-10-17T05:38:10.475Z,12.91
2022-10-17T05:40:40.997Z,12.83
2022-10-17T05:43:09.575Z,12.82
2022-10-17T05:45:38.571Z,12.87
2022-10-17T05:48:10.275Z,12.89
2022-10-17T05:50:38.550Z,12.92
2022-10-17T05:53:12.757Z,13.04
2022-10-17T05:55:46.236Z,13.00
2022-10-17T05:58:21.992Z,12.86
2022-10-17T06:01:13.503Z,12.87
2022-10-17T06:03:41.738Z,12.73
2022-10-17T06:06:14.274Z,12.69
2022-10-17T06:08:45.826Z,12.72
2022-10-17T06:11:17.776Z,12.81
2022-10-17T06:13:47.085Z,12.88
2022-10-17T06:16:24.302Z,12.88
2022-10-17T06:18:52.595Z,13.16
2022-10-17T06:21:24.576Z,13.29
2022-10-17T06:23:54.875Z,13.43
2022-10-17T06:26:33.562Z,13.57
2022-10-17T06:29:01.903Z,13.72
2022-10-17T06:31:36.093Z,13.72
2022-10-17T06:34:05.160Z,13.64
2022-10-17T06:36:33.437Z,13.57
2022-10-17T06:39:02.488Z,13.54
2022-10-17T06:41:44.948Z,13.57
2022-10-17T06:44:13.368Z,13.54
2022-10-17T06:47:20.204Z,13.64
2022-10-17T06:49:49.925Z,13.74
2022-10-17T06:52:30.519Z,13.77
2022-10-17T06:55:22.636Z,13.92
2022-10-17T06:58:17.007Z,14.10
2022-10-17T07:01:12.161Z,14.28
2022-10-17T07:03:43.623Z,14.43
2022-10-17T07:06:13.369Z,14.50
2022-10-17T07:08:45.028Z,14.66
2022-10-17T07:11:21.755Z,14.77
2022-10-17T07:13:52.744Z,14.91
2022-10-17T07:16:23.016Z,15.06
2022-10-17T07:18:59.228Z,15.24
2022-10-17T07:21:28.455Z,15.35
2022-10-17T07:23:57.015Z,15.30
2022-10-17T07:26:25.504Z,15.39
2022-10-17T07:28:55.421Z,15.82
2022-10-17T07:31:33.264Z,16.21
2022-10-17T07:34:20.493Z,16.48
2022-10-17T07:36:48.721Z,16.70
2022-10-17T07:39:17.294Z,16.87
2022-10-17T07:41:48.983Z,17.10
2022-10-17T07:44:17.915Z,17.22
2022-10-17T07:46:50.528Z,17.45
2022-10-17T07:49:19.752Z,17.60
2022-10-17T07:51:49.878Z,17.69
2022-10-17T07:54:18.476Z,17.81
2022-10-17T07:56:50.534Z,17.77
2022-10-17T07:59:19.842Z,17.80
2022-10-17T08:01:48.223Z,17.91
2022-10-17T08:04:17.117Z,18.05
2022-10-17T08:06:45.367Z,18.26
2022-10-17T08:09:13.565Z,18.42
2022-10-17T08:11:44.083Z,18.58
2022-10-17T08:14:15.013Z,18.71
2022-10-17T08:16:43.797Z,18.84
2022-10-17T08:19:13.084Z,18.98
2022-10-17T08:21:41.437Z,19.06
2022-10-17T08:24:09.620Z,19.19
2022-10-17T08:26:42.334Z,19.35
2022-10-17T08:29:16.460Z,19.43
2022-10-17T08:31:47.732Z,19.48
2022-10-17T08:34:17.332Z,19.51
2022-10-17T08:36:45.629Z,19.53
2022-10-17T08:39:13.807Z,19.63
2022-10-17T08:41:48.030Z,19.66
2022-10-17T08:44:33.404Z,19.79
2022-10-17T08:47:06.070Z,19.85
2022-10-17T08:49:51.531Z,19.98
2022-10-17T08:52:57.562Z,20.12
2022-10-17T08:55:37.828Z,20.18
2022-10-17T08:58:19.221Z,20.18
2022-10-17T09:01:00.441Z,20.03
2022-10-17T09:03:36.929Z,20.13
2022-10-17T09:06:10.639Z,20.16
2022-10-17T09:08:47.705Z,20.07
2022-10-17T09:11:35.349Z,19.93
2022-10-17T09:14:43.147Z,19.88
2022-10-17T09:17:29.429Z,19.97
2022-10-17T09:20:06.166Z,20.18
2022-10-17T09:22:46.228Z,20.33
2022-10-17T09:25:18.849Z,20.08
2022-10-17T09:27:48.943Z,20.22
2022-10-17T09:30:43.583Z,20.36
2022-10-17T09:33:23.239Z,20.50
2022-10-17T09:36:02.871Z,20.56
2022-10-17T09:38:45.251Z,20.67
2022-10-17T09:41:44.929Z,20.80
2022-10-17T09:44:23.510Z,20.87
2022-10-17T09:47:18.511Z,20.89
2022-10-17T09:49:48.735Z,20.82
2022-10-17T09:52:40.230Z,20.95
2022-10-17T09:55:38.918Z,21.08
2022-10-17T09:58:08.288Z,20.98
2022-10-17T10:00:40.025Z,20.97
2022-10-17T10:03:20.402Z,20.95
2022-10-17T10:06:07.472Z,20.99
2022-10-17T10:08:52.439Z,21.06
2022-10-17T10:11:26.375Z,21.00
2022-10-17T10:13:54.538Z,21.15
2022-10-17T10:16:33.285Z,21.27
2022-10-17T10:19:04.700Z,21.30
2022-10-17T10:21:54.210Z,21.35
2022-10-17T10:24:26.931Z,21.26
2022-10-17T10:27:00.507Z,21.20
2022-10-17T10:29:34.168Z,21.18
2022-10-17T10:32:26.485Z,21.40
2022-10-17T10:34:58.783Z,21.60
2022-10-17T10:37:43.474Z,21.84
2022-10-17T10:40:23.688Z,21.82
2022-10-17T10:42:54.812Z,22.01
2022-10-17T10:45:48.090Z,22.05
2022-10-17T10:48:23.631Z,22.00
2022-10-17T10:51:16.458Z,22.23
2022-10-17T10:54:05.502Z,22.36
2022-10-17T10:56:37.170Z,22.45
2022-10-17T10:59:11.222Z,22.60
2022-10-17T11:01:54.170Z,22.51
2022-10-17T11:04:35.323Z,22.42
2022-10-17T11:07:22.623Z,22.56
2022-10-17T11:10:30.859Z,22.53
2022-10-17T11:13:11.066Z,22.75
2022-10-17T11:15:51.478Z,22.78
2022-10-17T11:18:31.852Z,22.94
2022-10-17T11:21:04.308Z,23.15
2022-10-17T11:24:09.081Z,23.55
2022-10-17T11:26:46.630Z,23.83
2022-10-17T11:29:14.899Z,23.61
2022-10-17T11:31:48.999Z,23.97
2022-10-17T11:34:36.134Z,24.41
2022-10-17T11:37:45.971Z,24.28
2022-10-17T11:40:38.443Z,24.73
2022-10-17T11:43:18.740Z,-145.56
2022-10-17T11:45:53.083Z,-145.56
2022-10-17T11:49:06.564Z,-145.56
2022-10-17T11:52:00.442Z,-145.56
2022-10-17T11:54:45.791Z,-145.56
2022-10-17T11:57:41.214Z,-145.56
2022-10-17T12:00:27.198Z,-145.56
2022-10-17T12:03:24.798Z,-145.56
2022-10-17T12:05:59.594Z,-145.56
2022-10-17T12:08:42.210Z,-145.56
2022-10-17T12:11:28.514Z,-145.56
2022-10-17T12:13:57.243Z,-145.56
2022-10-17T12:16:25.464Z,-145.56
2022-10-17T12:19:23.671Z,-145.56
2022-10-17T12:22:13.514Z,-145.56
2022-10-17T12:24:45.160Z,-145.56
2022-10-17T12:27:45.909Z,-145.56
2022-10-17T12:30:24.791Z,-145.56
2022-10-17T12:33:07.987Z,-145.56
2022-10-17T12:35:38.692Z,-145.56
2022-10-17T12:38:20.453Z,-145.56
2022-10-17T12:40:50.815Z,-145.56
2022-10-17T12:43:27.746Z,-145.56
2022-10-17T12:46:00.773Z,-145.56
2022-10-17T12:48:34.768Z,-145.56
2022-10-17T12:54:15.170Z,-145.56
2022-10-17T12:56:49.491Z,-145.56
2022-10-17T12:59:27.878Z,-145.56
2022-10-17T13:02:03.448Z,-145.56
2022-10-17T13:04:36.326Z,-145.56
2022-10-17T13:07:04.869Z,-145.56
2022-10-17T13:09:35.339Z,-145.56
2022-10-17T13:12:10.840Z,-145.56
2022-10-17T13:14:42.767Z,-145.56
2022-10-17T13:17:27.631Z,-145.56
2022-10-17T13:19:56.663Z,-145.56
2022-10-17T13:22:28.676Z,-145.56
2022-10-17T13:25:15.800Z,-145.56
2022-10-17T13:27:44.473Z,-145.56
2022-10-17T13:30:28.007Z,-145.56
2022-10-17T13:32:59.706Z,-145.56
2022-10-17T13:38:29.629Z,-145.56
2022-10-17T13:41:10.801Z,-145.56
2022-10-17T13:43:46.616Z,-145.56
2022-10-17T13:46:37.956Z,-145.56
2022-10-17T13:49:24.520Z,-145.56
2022-10-17T13:51:56.194Z,-145.56
2022-10-17T13:54:42.934Z,-145.56
2022-10-17T13:57:29.128Z,-145.56
2022-10-17T14:00:21.989Z,-145.56
2022-10-17T14:02:50.970Z,-145.56
2022-10-17T14:05:21.519Z,-145.56
2022-10-17T14:08:13.744Z,-145.56
2022-10-17T14:10:43.907Z,-145.56
2022-10-17T14:13:36.227Z,-145.56
2022-10-17T14:16:05.128Z,-145.56
2022-10-17T14:18:37.908Z,-145.56
2022-10-17T14:24:16.055Z,-145.56
2022-10-17T14:26:59.575Z,-145.56
2022-10-17T14:29:33.155Z,-145.56
2022-10-17T14:32:06.176Z,-145.56
2022-10-17T14:34:38.005Z,-145.56
2022-10-17T14:37:41.342Z,-145.56
2022-10-17T14:40:17.878Z,-145.56
2022-10-17T14:42:47.451Z,-145.56
2022-10-17T14:45:32.214Z,-145.56
2022-10-17T14:48:17.660Z,-145.56
2022-10-17T14:51:09.072Z,-145.56
2022-10-17T14:53:38.771Z,-145.56
2022-10-17T14:56:24.114Z,-145.56
2022-10-17T14:58:53.050Z,-145.56
2022-10-17T15:01:21.288Z,-145.56
2022-10-17T15:03:49.670Z,-145.56
2022-10-17T15:06:48.491Z,-145.56
2022-10-17T15:09:16.684Z,-145.56
2022-10-17T15:11:44.916Z,-145.56
2022-10-17T15:14:13.054Z,-145.56
2022-10-17T15:16:41.262Z,-145.56
2022-10-17T15:19:12.385Z,-145.56
2022-10-17T15:21:44.788Z,-145.56
2022-10-17T15:24:15.893Z,-145.56
2022-10-17T15:26:44.162Z,-145.56
2022-10-17T15:29:16.227Z,-145.56
2022-10-17T15:31:44.479Z,-145.56
2022-10-17T15:34:12.711Z,-145.56
2022-10-17T15:36:42.559Z,-145.56
2022-10-17T15:39:10.929Z,-145.56
2022-10-17T15:41:39.114Z,-145.56
2022-10-17T15:44:07.540Z,-145.56
2022-10-17T15:46:36.321Z,-145.56
2022-10-17T15:49:08.107Z,-145.56
2022-10-17T15:51:39.048Z,-145.56
2022-10-17T15:54:07.400Z,-145.56
2022-10-17T15:56:43.074Z,-145.56
2022-10-17T15:59:21.742Z,-145.56
2022-10-17T16:01:50.042Z,-145.56
2022-10-17T16:04:18.858Z,-145.56
2022-10-17T16:06:47.076Z,-145.56
2022-10-17T16:09:15.283Z,-145.56
2022-10-17T16:11:45.090Z,-145.56
2022-10-17T16:14:18.289Z,-145.56
2022-10-17T16:16:46.429Z,-145.56
2022-10-17T16:19:14.761Z,-145.56
2022-10-17T16:21:43.066Z,-145.56
2022-10-17T16:24:13.989Z,-145.56
2022-10-17T16:26:45.086Z,-145.56
2022-10-17T16:29:13.398Z,-145.56
2022-10-17T16:31:45.161Z,-145.56
2022-10-17T16:34:14.884Z,-145.56
2022-10-17T16:36:43.440Z,-145.56
2022-10-17T16:39:11.585Z,-145.56
2022-10-17T16:41:40.142Z,-145.56
2022-10-17T16:44:15.184Z,-145.56
2022-10-17T16:46:43.383Z,-145.56
2022-10-17T16:49:12.634Z,-145.56
2022-10-17T16:51:40.797Z,-145.56
2022-10-17T16:54:09.807Z,-145.56
2022-10-17T16:56:38.011Z,-145.56
2022-10-17T16:59:06.163Z,-145.56
2022-10-17T17:01:34.396Z,-145.56
2022-10-17T17:04:04.577Z,-145.56
2022-10-17T17:06:32.905Z,-145.56
2022-10-17T17:09:01.090Z,-145.56
2022-10-17T17:11:29.373Z,-145.56
2022-10-17T17:13:59.403Z,-145.56
2022-10-17T17:16:29.567Z,-145.56
2022-10-17T17:19:00.547Z,-145.56
2022-10-17T17:21:29.155Z,-145.56
2022-10-17T17:24:00.161Z,-145.56
2022-10-17T17:26:32.249Z,-145.56
2022-10-17T17:29:01.482Z,-145.56
2022-10-17T17:31:34.966Z,-145.56
2022-10-17T17:34:03.964Z,-145.56
2022-10-17T17:36:37.169Z,-145.56
2022-10-17T17:39:08.067Z,-145.56
2022-10-17T17:41:39.525Z,-145.56
2022-10-17T17:44:12.403Z,-145.56
2022-10-17T17:46:51.488Z,-145.56
2022-10-17T17:49:19.837Z,-145.56
2022-10-17T17:51:48.516Z,-145.56
2022-10-17T17:54:17.519Z,-145.56
2022-10-17T17:56:45.690Z,-145.56
2022-10-17T17:59:16.816Z,-145.56
2022-10-17T18:01:47.761Z,-145.56
2022-10-17T18:04:18.876Z,-145.56
2022-10-17T18:06:47.287Z,-145.56
2022-10-17T18:09:15.445Z,-145.56
2022-10-17T18:11:43.612Z,-145.56
2022-10-17T18:14:13.794Z,-145.56
2022-10-17T18:16:42.649Z,-145.56
2022-10-17T18:19:11.781Z,-145.56
2022-10-17T18:21:40.036Z,-145.56
2022-10-17T18:24:08.374Z,-145.56
2022-10-17T18:26:37.019Z,-145.56
2022-10-17T18:29:05.486Z,-145.56
2022-10-17T18:31:36.045Z,-145.56
2022-10-17T18:34:05.889Z,-145.56
2022-10-17T18:36:35.152Z,-145.56
2022-10-17T18:39:04.538Z,-145.56
2022-10-17T18:41:33.397Z,-145.56
2022-10-17T18:44:03.089Z,-145.56
2022-10-17T18:46:36.323Z,-145.56
2022-10-17T18:49:04.568Z,-145.56
2022-10-17T18:51:32.776Z,-145.56
2022-10-17T18:54:02.348Z,-145.56
2022-10-17T18:56:31.332Z,-145.56
2022-10-17T18:59:01.268Z,-145.56
2022-10-17T19:01:29.737Z,-145.56
2022-10-17T19:03:59.413Z,-145.56
2022-10-17T19:06:32.109Z,-145.56
2022-10-17T19:09:02.562Z,-145.56
2022-10-17T19:11:32.204Z,-145.56
2022-10-17T19:14:02.190Z,-145.56
2022-10-17T19:16:36.173Z,-145.56
2022-10-17T19:19:08.391Z,-145.56
2022-10-17T19:21:36.727Z,-145.56
2022-10-17T19:24:07.835Z,-145.56
2022-10-17T19:26:36.927Z,-145.56
2022-10-17T19:29:06.285Z,-145.56
2022-10-17T19:31:35.817Z,-145.56
2022-10-17T19:34:04.057Z,-145.56
2022-10-17T19:36:34.075Z,-145.56
2022-10-17T19:39:10.487Z,-145.56
2022-10-17T19:41:42.909Z,-145.56
2022-10-17T19:44:11.549Z,-145.56
2022-10-17T19:46:40.201Z,-145.56
2022-10-17T19:49:08.550Z,-145.56
2022-10-17T19:51:36.803Z,-145.56
2022-10-17T19:54:05.048Z,-145.56
2022-10-17T19:56:38.319Z,-145.56
2022-10-17T19:59:07.156Z,-145.56
2022-10-17T20:01:40.736Z,-145.56
2022-10-17T20:04:10.958Z,-145.56
2022-10-17T20:06:40.074Z,-145.56
2022-10-17T20:09:13.881Z,-145.56
2022-10-17T20:11:45.049Z,-145.56
2022-10-17T20:14:13.235Z,-145.56
2022-10-17T20:16:41.414Z,-145.56
2022-10-17T20:19:12.268Z,-145.56
2022-10-17T20:21:40.622Z,-145.56
2022-10-17T20:24:12.491Z,-145.56
2022-10-17T20:26:43.288Z,-145.56
2022-10-17T20:29:17.789Z,-145.56
2022-10-17T20:31:50.160Z,-145.56
2022-10-17T20:34:19.735Z,-145.56
2022-10-17T20:36:48.694Z,-145.56
2022-10-17T20:39:20.027Z,-145.56
2022-10-17T20:41:51.315Z,-145.56
2022-10-17T20:44:19.811Z,-145.56
2022-10-17T20:47:01.321Z,-145.56
2022-10-17T20:49:31.682Z,-145.56
2022-10-17T20:52:00.880Z,-145.56
2022-10-17T20:54:29.127Z,-145.56
2022-10-17T20:56:59.850Z,-145.56
2022-10-17T20:59:30.924Z,-145.56
2022-10-17T21:01:59.133Z,-145.56
2022-10-17T21:07:17.144Z,-145.56
2022-10-17T21:09:46.388Z,-145.56
2022-10-17T21:12:21.791Z,-145.56
2022-10-17T21:14:59.955Z,-145.56
2022-10-17T21:17:28.377Z,-145.56
2022-10-17T21:19:56.558Z,-145.56
2022-10-17T21:22:24.803Z,-145.56
2022-10-17T21:24:53.097Z,-145.56
2022-10-17T21:27:21.306Z,-145.56
2022-10-17T21:29:49.599Z,-145.56
2022-10-17T21:32:31.916Z,-145.56
2022-10-17T21:35:06.403Z,-145.56
2022-10-17T21:37:34.604Z,-145.56
2022-10-17T21:40:02.843Z,-145.56
2022-10-17T21:42:31.262Z,-145.56
2022-10-17T21:44:59.627Z,-145.56
2022-10-17T21:47:29.653Z,-145.56
2022-10-17T21:49:57.806Z,-145.56
2022-10-17T21:52:25.989Z,-145.56
2022-10-17T21:54:54.175Z,-145.56
2022-10-17T21:57:22.360Z,-145.56
2022-10-17T21:59:50.508Z,-145.56
2022-10-17T22:02:19.363Z,-145.56
2022-10-17T22:04:47.628Z,-145.56
2022-10-17T22:07:15.796Z,-145.56
2022-10-17T22:09:44.022Z,-145.56
2022-10-17T22:12:12.144Z,-145.56
2022-10-17T22:14:40.384Z,-145.56
2022-10-17T22:17:08.534Z,-145.56
2022-10-17T22:19:36.699Z,-145.56
2022-10-17T22:22:04.894Z,-145.56
2022-10-17T22:24:33.036Z,-145.56
2022-10-17T22:27:01.444Z,-145.56
2022-10-17T22:29:29.656Z,-145.56
2022-10-17T22:32:00.528Z,-145.56
2022-10-17T22:34:28.828Z,-145.56
2022-10-17T22:36:56.986Z,-145.56
2022-10-17T22:39:25.065Z,-145.56
2022-10-17T22:41:53.279Z,-145.56
2022-10-17T22:44:21.456Z,-145.56
2022-10-17T22:46:49.740Z,-145.56
2022-10-17T22:49:18.005Z,-145.56
2022-10-17T22:51:46.126Z,-145.56
2022-10-17T22:54:14.300Z,-145.56
2022-10-17T22:56:45.150Z,-145.56
2022-10-17T22:59:13.320Z,-145.56
2022-10-17T23:01:41.562Z,-145.56
2022-10-17T23:04:09.795Z,-145.56
2022-10-17T23:06:37.930Z,-145.56
2022-10-17T23:09:06.133Z,-145.56
2022-10-17T23:11:34.286Z,-145.56
2022-10-17T23:14:02.411Z,-145.56
2022-10-17T23:16:30.515Z,-145.56
2022-10-17T23:18:58.905Z,-145.56
2022-10-17T23:21:27.015Z,-145.56
2022-10-17T23:23:55.283Z,-145.56
2022-10-17T23:26:23.410Z,-145.56
2022-10-17T23:28:54.874Z,-145.56
2022-10-17T23:31:23.184Z,-145.56
2022-10-17T23:33:51.541Z,-145.56
2022-10-17T23:36:20.989Z,-145.56
2022-10-17T23:38:49.750Z,-145.56
2022-10-17T23:41:19.076Z,-145.56
2022-10-17T23:43:47.203Z,-145.56
2022-10-17T23:46:15.377Z,-145.56
2022-10-17T23:48:43.551Z,-145.56
2022-10-17T23:51:11.895Z,-145.56
2022-10-17T23:53:41.238Z,-145.56
2022-10-17T23:56:10.477Z,-145.56
2022-10-17T23:58:39.675Z,-145.56
